Nearby METAR Reports

 

KSJC - San Jose, California, USA
Distance from station: NE 14km
Updated: 06/12/2019 01:53
Few Clouds
Few Clouds
 Wind from calm
Wind: Calm
Temperature: 12°C
Dew Point: 11°C
Humidity: 94%
Barometer: 1016.9 hPa
Clouds: Few Clouds
Visibility: 16 km
Cloud details: Few Clouds 1494 m
2019/12/06 09:53 KSJC 060953Z AUTO 00000KT 10SM FEW049 12/11 A3003 RMK AO2 SLP170 T01220106
KNUQ - Moffett Nas/Mtn, California, USA
Distance from station: N 14km
Updated: 21/11/2019 08:56
NOT Current

 
Barometer: 1011.2 hPa
2019/11/21 16:56 KNUQ 211656Z AUTO A2986 RMK AO2 SLP116 PWINO $
 
KPAO - Palo Alto, California, USA
Distance from station: NNW 23km
Updated: 05/12/2019 20:47
NOT Current
Overcast
Overcast
 Wind from calm
Wind: Calm
Temperature: 14°C
Dew Point: 12°C
Humidity: 88%
Barometer: 1017.6 hPa
Clouds: Overcast
Visibility: 16 km
Cloud details: Overcast 914 m
2019/12/06 04:47 KPAO 060447Z 00000KT 10SM OVC030 14/12 A3005
KRHV - San Jose/Reid, California, USA
Distance from station: ENE 19km
Updated: 05/12/2019 21:53
NOT Current
Mostly cloudy
Mostly cloudy
 Wind from calm
Wind: Calm
Temperature: 14°C
Dew Point: 11°C
Humidity: 82%
Barometer: 1017.6 hPa
Clouds: Mostly cloudy
Visibility: 16 km
Cloud details: Few Clouds 457 m
Mostly cloudy 1524 m
2019/12/06 05:53 KRHV 060553Z 00000KT 10SM FEW015 BKN050 14/11 A3005
 
KOAK - Oakland, California, USA
Distance from station: NNW 50km
Updated: 06/12/2019 01:53
Mostly cloudy
Mostly cloudy
 Wind from E
Wind: E 6 km/h
Temperature: 14°C
Dew Point: 11°C
Humidity: 82%
Barometer: 1017.3 hPa
Clouds: Mostly cloudy
Visibility: 16 km
Cloud details: Mostly cloudy 1280 m
2019/12/06 09:53 KOAK 060953Z 08003KT 10SM BKN042 14/11 A3004 RMK AO2 SLP172 T01440106
KSQL - San Carlos Airpo, California, USA
Distance from station: NW 34km
Updated: 05/12/2019 20:47
NOT Current
Mostly cloudy
Mostly cloudy
 Wind from varies
Wind: varies 6 km/h
Temperature: 14°C
Dew Point: 12°C
Humidity: 88%
Barometer: 1017.3 hPa
Clouds: Mostly cloudy
Visibility: 16 km
Cloud details: Mostly cloudy 975 m
2019/12/06 04:47 KSQL 060447Z VRB03KT 10SM BKN032 14/12 A3004 RMK LAST
 
KSFO - San Francisco, California, USA
Distance from station: NW 49km
Updated: 06/12/2019 01:56
Mostly cloudy
Mostly cloudy
 Wind from NE
Wind: NE 6 km/h
Temperature: 13°C
Dew Point: 11°C
Humidity: 88%
Barometer: 1016.9 hPa
Clouds: Mostly cloudy
Visibility: 16 km
Cloud details: Few Clouds 945 m
Mostly cloudy 1128 m
2019/12/06 09:56 KSFO 060956Z 04003KT 10SM FEW031 BKN037 13/11 A3003 RMK AO2 SLP170 T01330111 $
KE16 - San Martin, California, USA
Distance from station: ESE 43km
Updated: 14/11/2019 01:35
NOT Current
Overcast
Overcast
 Wind from SE
Wind: SE 11 km/h
Temperature: 12°C
Dew Point: 10°C
Humidity: 88%
Barometer: 1017.6 hPa
Clouds: Overcast
Visibility: 16 km
Cloud details: Overcast 427 m
2019/11/14 09:35 KE16 140935Z AUTO 13006KT 10SM OVC014 12/10 A3005 RMK AO2
 
KWVI - Watsonville, California, USA
Distance from station: SSE 44km
Updated: 06/12/2019 01:53
Clear
Clear
 Wind from NNW
Wind: NNW 7 km/h
Temperature: 11°C
Dew Point: 10°C
Humidity: 94%
Barometer: 1017.6 hPa
Clouds: Clear
Visibility: 16 km
2019/12/06 09:53 KWVI 060953Z AUTO 33004KT 10SM CLR 11/10 A3005 RMK AO2 SLP175 T01060100
KHAF - Half Moon Bay, California, USA
Distance from station: WNW 50km
Updated: 06/12/2019 02:20
Overcast
Overcast
 Wind from S
Wind: S 22 km/h, Gust: 31 km/h
Temperature: 14°C
Dew Point: 11°C
Humidity: 82%
Barometer: 1017.3 hPa
Clouds: Overcast
Visibility: 16 km
Cloud details: Overcast 945 m
2019/12/06 10:20 KHAF 061020Z AUTO 17012G17KT 10SM OVC031 14/11 A3004 RMK AO2
 
KHWD - Hayward, California, USA
Distance from station: N 44km
Updated: 06/12/2019 01:54
Partly cloudy
Partly cloudy
 Wind from E
Wind: E 9 km/h
Temperature: 14°C
Dew Point: 10°C
Humidity: 77%
Barometer: 1016.9 hPa
Clouds: Partly cloudy
Visibility: 16 km
Cloud details: Partly cloudy 1463 m
2019/12/06 09:54 KHWD 060954Z 09005KT 10SM SCT048 14/10 A3003 RMK AO2 SLP179 T01390100
KLVK - Livermore, California, USA
Distance from station: NNE 51km
Updated: 06/12/2019 01:53
Mist, Clear
Mist, Clear
 Wind from ENE
Wind: ENE 7 km/h
Temperature: 11°C
Dew Point: 10°C
Humidity: 94%
Barometer: 1017.3 hPa
Summary: Mist
Clouds: Clear
Visibility: 6 km
2019/12/06 09:53 KLVK 060953Z AUTO 07004KT 4SM BR CLR 11/10 A3004 RMK AO2 SLP172 T01110100